Time;durP1;ratioP1;P1;durP2;ratioP2;P2;SDS_P1;SDS_P2;PMS_P1;PMS_P2;Temp;Humidity;BMP_temperature;BMP_pressure;BME280_temperature;BME280_humidity;BME280_pressure;Samples;Min_cycle;Max_cycle;Signal;HPM_P1;HPM_P2
2024/01/25 00:01:14;;;;;;;31.67;5.50;;;8.50;99.90;;;;;;5083997;28;20805;-40
2024/01/25 00:03:40;;;;;;;35.42;5.38;;;8.50;99.90;;;;;;5083688;28;20235;-42
2024/01/25 00:06:06;;;;;;;50.58;6.78;;;8.50;99.90;;;;;;5084148;28;20567;-39
2024/01/25 00:08:33;;;;;;;39.95;5.82;;;8.40;99.90;;;;;;5081333;28;20218;-43
2024/01/25 00:10:59;;;;;;;43.10;6.43;;;8.40;99.90;;;;;;5065969;28;20190;-43
2024/01/25 00:13:25;;;;;;;45.45;6.07;;;8.40;99.90;;;;;;5083567;28;20210;-42
2024/01/25 00:15:52;;;;;;;37.90;5.95;;;8.40;99.90;;;;;;5083370;28;20225;-44
2024/01/25 00:18:18;;;;;;;32.08;5.32;;;8.40;99.90;;;;;;5083279;28;20255;-40
2024/01/25 00:20:43;;;;;;;30.15;5.25;;;8.30;99.90;;;;;;5084126;28;20186;-46
2024/01/25 00:23:09;;;;;;;46.63;7.93;;;8.30;99.90;;;;;;5083485;28;20222;-45
2024/01/25 00:25:35;;;;;;;32.38;5.20;;;8.20;99.90;;;;;;5082267;28;20205;-40
2024/01/25 00:28:01;;;;;;;39.47;5.82;;;8.20;99.90;;;;;;5082791;28;20205;-39
2024/01/25 00:30:27;;;;;;;38.55;5.72;;;8.20;99.90;;;;;;5083624;28;20635;-42
2024/01/25 00:32:53;;;;;;;37.63;6.20;;;8.20;99.90;;;;;;5083356;28;20193;-39
2024/01/25 00:35:19;;;;;;;41.38;5.50;;;8.10;99.90;;;;;;5082848;28;20217;-41
2024/01/25 00:37:45;;;;;;;36.60;6.93;;;8.10;99.90;;;;;;5083483;28;20182;-41
2024/01/25 00:40:13;;;;;;;43.72;6.25;;;8.10;99.90;;;;;;5083010;28;20188;-43
2024/01/25 00:42:44;;;;;;;39.40;5.85;;;8.00;99.90;;;;;;5083354;28;20186;-51
2024/01/25 00:45:11;;;;;;;43.80;6.90;;;8.00;99.90;;;;;;5082172;28;20215;-42
2024/01/25 00:47:38;;;;;;;35.95;6.20;;;7.90;99.90;;;;;;5082973;28;20340;-41
2024/01/25 00:50:04;;;;;;;31.40;5.63;;;7.90;99.90;;;;;;5082888;28;20182;-44
2024/01/25 00:52:31;;;;;;;36.45;6.25;;;7.90;99.90;;;;;;5082782;28;20634;-41
2024/01/25 00:54:57;;;;;;;44.20;6.60;;;7.90;99.90;;;;;;5083032;28;20648;-45
2024/01/25 00:57:23;;;;;;;46.72;6.85;;;7.90;99.90;;;;;;5083099;28;20190;-42
2024/01/25 00:59:49;;;;;;;35.15;6.35;;;7.80;99.90;;;;;;5082664;28;20197;-41
2024/01/25 01:02:15;;;;;;;36.72;6.07;;;7.70;99.90;;;;;;5081823;28;20194;-38
2024/01/25 01:04:41;;;;;;;44.67;6.65;;;7.70;99.90;;;;;;5082408;28;20190;-39
2024/01/25 01:07:08;;;;;;;41.53;6.40;;;7.70;99.90;;;;;;5082859;28;20190;-39
2024/01/25 01:09:34;;;;;;;49.67;6.47;;;7.60;99.90;;;;;;5083036;28;20693;-42
2024/01/25 01:12:00;;;;;;;36.42;6.30;;;7.60;99.90;;;;;;5064144;28;20288;-43
2024/01/25 01:14:26;;;;;;;41.85;7.00;;;7.60;99.90;;;;;;5082405;28;20702;-39
2024/01/25 01:16:52;;;;;;;36.95;6.43;;;7.60;99.90;;;;;;5081065;28;20189;-38
2024/01/25 01:19:18;;;;;;;47.72;7.05;;;7.50;99.90;;;;;;5081288;28;20273;-41
2024/01/25 01:21:44;;;;;;;33.42;6.07;;;7.50;99.90;;;;;;5082270;28;20300;-44
2024/01/25 01:24:11;;;;;;;32.70;5.35;;;7.50;99.90;;;;;;5082318;28;20186;-43
2024/01/25 01:26:37;;;;;;;28.52;3.95;;;7.50;99.90;;;;;;5082306;28;20190;-39
2024/01/25 01:29:03;;;;;;;35.95;5.70;;;7.50;99.90;;;;;;5080869;28;20570;-41
2024/01/25 01:31:29;;;;;;;37.08;5.80;;;7.60;99.90;;;;;;5081894;28;21327;-44
2024/01/25 01:33:55;;;;;;;30.95;5.32;;;7.50;99.90;;;;;;5082053;28;20269;-44
2024/01/25 01:36:21;;;;;;;36.05;6.30;;;7.50;99.90;;;;;;5082117;28;20249;-40
2024/01/25 01:38:47;;;;;;;39.60;6.38;;;7.50;99.90;;;;;;5082351;28;20269;-43
2024/01/25 01:41:13;;;;;;;45.10;6.88;;;7.60;99.90;;;;;;5046952;28;20281;-44
2024/01/25 01:43:39;;;;;;;46.10;6.47;;;7.50;99.90;;;;;;5063952;28;21159;-43
2024/01/25 01:46:44;;;;;;;45.03;6.45;;;7.50;99.90;;;;;;5081736;28;20190;-38
2024/01/25 01:49:14;;;;;;;50.72;7.05;;;7.50;99.90;;;;;;5080429;28;20226;-43
2024/01/25 01:51:42;;;;;;;46.05;6.75;;;7.50;99.90;;;;;;5082009;28;20198;-46
2024/01/25 01:54:09;;;;;;;56.65;7.22;;;7.40;99.90;;;;;;5081587;28;20186;-38
2024/01/25 01:56:36;;;;;;;38.85;6.38;;;7.50;99.90;;;;;;5081566;28;20190;-42
2024/01/25 01:59:04;;;;;;;44.88;6.38;;;7.50;99.90;;;;;;5081937;28;20186;-43
2024/01/25 02:01:31;;;;;;;33.00;5.88;;;7.50;99.90;;;;;;5081552;28;20738;-41
2024/01/25 02:03:57;;;;;;;47.22;6.97;;;7.40;99.90;;;;;;5063830;28;20202;-39
2024/01/25 02:06:26;;;;;;;40.67;6.38;;;7.50;99.90;;;;;;5046178;28;20201;-44
2024/01/25 02:08:58;;;;;;;43.63;5.47;;;7.40;99.90;;;;;;5081369;28;20661;-40
2024/01/25 02:11:25;;;;;;;41.13;6.05;;;7.40;99.90;;;;;;5080014;28;20186;-46
2024/01/25 02:13:51;;;;;;;35.35;6.50;;;7.40;99.90;;;;;;5079599;28;20186;-39
2024/01/25 02:16:17;;;;;;;45.88;6.70;;;7.40;99.90;;;;;;5080026;28;20312;-43
2024/01/25 02:18:44;;;;;;;48.10;6.15;;;7.40;99.90;;;;;;5080797;28;20657;-44
2024/01/25 02:21:10;;;;;;;42.30;5.65;;;7.40;99.90;;;;;;5081441;28;20232;-42
2024/01/25 02:23:35;;;;;;;48.78;7.30;;;7.40;99.90;;;;;;5079678;28;20284;-39
2024/01/25 02:26:01;;;;;;;37.95;6.50;;;7.40;99.90;;;;;;5081881;28;20178;-42
2024/01/25 02:28:27;;;;;;;53.17;7.55;;;7.40;99.90;;;;;;5081149;28;20987;-38
2024/01/25 02:30:53;;;;;;;52.13;7.20;;;7.30;99.90;;;;;;5081675;28;20649;-37
2024/01/25 02:33:19;;;;;;;47.35;7.30;;;7.30;99.90;;;;;;5080065;28;20189;-41
2024/01/25 02:35:45;;;;;;;58.30;6.75;;;7.30;99.90;;;;;;5080883;28;20210;-45
2024/01/25 02:38:11;;;;;;;45.55;6.95;;;7.30;99.90;;;;;;5081342;28;20671;-43
2024/01/25 02:40:37;;;;;;;46.83;6.32;;;7.30;99.90;;;;;;5081339;28;20626;-41
2024/01/25 02:43:03;;;;;;;45.33;6.65;;;7.20;99.90;;;;;;5079929;28;20215;-39
2024/01/25 02:45:29;;;;;;;47.70;7.25;;;7.20;99.90;;;;;;5080917;28;20228;-46
2024/01/25 02:47:55;;;;;;;53.85;7.25;;;7.20;99.90;;;;;;5079165;28;20768;-40
2024/01/25 02:50:21;;;;;;;41.65;5.82;;;7.20;99.90;;;;;;5081290;28;20190;-40
2024/01/25 02:52:46;;;;;;;37.58;6.03;;;7.10;99.90;;;;;;5080380;28;20194;-40
2024/01/25 02:55:12;;;;;;;43.28;6.53;;;7.10;99.90;;;;;;5081001;28;20186;-40
2024/01/25 02:57:38;;;;;;;44.65;6.43;;;7.10;99.90;;;;;;5081241;28;20235;-39
2024/01/25 03:00:05;;;;;;;48.40;6.53;;;7.10;99.90;;;;;;5085422;28;20185;-40
2024/01/25 03:02:31;;;;;;;53.20;7.32;;;7.00;99.90;;;;;;5085227;28;20251;-40
2024/01/25 03:04:57;;;;;;;50.50;6.43;;;7.00;99.90;;;;;;5084932;28;20273;-39
2024/01/25 03:07:23;;;;;;;51.35;7.28;;;7.00;99.90;;;;;;5085026;28;20212;-40
2024/01/25 03:09:48;;;;;;;53.28;7.18;;;7.00;99.90;;;;;;5084858;28;21243;-38
2024/01/25 03:12:14;;;;;;;60.03;7.43;;;6.90;99.90;;;;;;5083488;28;20193;-38
2024/01/25 03:14:40;;;;;;;51.65;7.15;;;6.90;99.90;;;;;;5084127;28;20189;-40
2024/01/25 03:17:06;;;;;;;60.80;6.78;;;6.90;99.90;;;;;;5084761;28;20201;-36
2024/01/25 03:19:33;;;;;;;48.10;7.07;;;6.80;99.90;;;;;;5085245;28;20177;-43
2024/01/25 03:22:01;;;;;;;53.08;7.15;;;6.80;99.90;;;;;;5083227;28;20272;-39
2024/01/25 03:24:27;;;;;;;57.20;7.05;;;6.80;99.90;;;;;;5083430;28;20189;-39
2024/01/25 03:26:53;;;;;;;55.95;7.63;;;6.70;99.90;;;;;;5084694;28;20273;-36
2024/01/25 03:29:19;;;;;;;44.85;6.85;;;6.70;99.90;;;;;;5084816;28;20223;-46
2024/01/25 03:31:45;;;;;;;49.58;7.28;;;6.70;99.90;;;;;;5083907;28;20182;-42
2024/01/25 03:34:11;;;;;;;55.33;6.90;;;6.70;99.90;;;;;;5084164;28;20229;-41
2024/01/25 03:36:40;;;;;;;52.47;7.97;;;6.70;99.90;;;;;;5084332;28;20228;-41
2024/01/25 03:39:07;;;;;;;58.63;7.82;;;6.70;99.90;;;;;;5084301;28;20206;-41
2024/01/25 03:41:33;;;;;;;61.80;7.80;;;6.70;99.90;;;;;;5084584;28;20185;-41
2024/01/25 03:43:58;;;;;;;60.30;6.90;;;6.70;99.90;;;;;;5082956;28;20278;-42
2024/01/25 03:46:24;;;;;;;56.17;7.75;;;6.60;99.90;;;;;;5082492;28;20339;-44
2024/01/25 03:48:50;;;;;;;45.95;6.97;;;6.60;99.90;;;;;;5084252;28;20698;-41
2024/01/25 03:51:16;;;;;;;66.53;8.02;;;6.60;99.90;;;;;;5084308;28;20185;-42
2024/01/25 03:53:42;;;;;;;54.97;8.32;;;6.60;99.90;;;;;;5084456;28;20186;-44
2024/01/25 03:56:13;;;;;;;59.28;7.85;;;6.60;99.90;;;;;;5082343;28;20205;-40
2024/01/25 03:58:38;;;;;;;55.35;8.52;;;6.60;99.90;;;;;;5084404;28;20208;-39
2024/01/25 04:01:05;;;;;;;50.10;6.85;;;6.60;99.90;;;;;;5084084;28;20194;-41
2024/01/25 04:03:31;;;;;;;66.65;8.15;;;6.50;99.90;;;;;;5084108;28;20190;-36
2024/01/25 04:05:57;;;;;;;57.65;7.72;;;6.50;99.90;;;;;;5083052;28;20209;-42
2024/01/25 04:08:23;;;;;;;50.22;7.97;;;6.50;99.90;;;;;;5081986;28;20217;-45
2024/01/25 04:10:49;;;;;;;52.65;7.55;;;6.40;99.90;;;;;;5082084;28;20700;-41
2024/01/25 04:13:15;;;;;;;56.45;7.50;;;6.40;99.90;;;;;;5084196;28;20568;-45
2024/01/25 04:15:40;;;;;;;72.35;8.30;;;6.40;99.90;;;;;;5083673;28;20186;-37
2024/01/25 04:18:06;;;;;;;43.10;7.18;;;6.40;99.90;;;;;;5083488;28;20649;-39
2024/01/25 04:20:34;;;;;;;58.13;6.93;;;6.40;99.90;;;;;;5082587;28;20257;-38
2024/01/25 04:23:00;;;;;;;49.97;6.97;;;6.30;99.90;;;;;;5083451;28;20203;-40
2024/01/25 04:25:25;;;;;;;63.13;7.72;;;6.30;99.90;;;;;;5083846;28;20277;-43
2024/01/25 04:27:51;;;;;;;47.90;6.75;;;6.30;99.90;;;;;;5081707;28;20726;-40
2024/01/25 04:30:18;;;;;;;55.40;7.05;;;6.30;99.90;;;;;;5083552;28;20181;-45
2024/01/25 04:32:44;;;;;;;86.15;8.90;;;6.20;99.90;;;;;;5083398;28;20190;-39
2024/01/25 04:35:10;;;;;;;51.35;7.38;;;6.20;99.90;;;;;;5083837;28;20581;-43
2024/01/25 04:37:36;;;;;;;63.08;7.82;;;6.20;99.90;;;;;;5083176;28;20225;-43
2024/01/25 04:40:02;;;;;;;65.10;7.32;;;6.20;99.90;;;;;;5083346;28;20239;-44
2024/01/25 04:42:28;;;;;;;62.67;7.32;;;6.20;99.90;;;;;;5083223;28;20530;-40
2024/01/25 04:44:54;;;;;;;51.90;6.88;;;6.20;99.90;;;;;;5083234;28;20197;-42
2024/01/25 04:47:20;;;;;;;48.30;6.57;;;6.20;99.90;;;;;;5082771;28;20190;-42
2024/01/25 04:49:46;;;;;;;61.40;7.78;;;6.20;99.90;;;;;;5082779;28;20735;-41
2024/01/25 04:52:12;;;;;;;53.90;6.88;;;6.10;99.90;;;;;;5083323;28;20199;-41
2024/01/25 04:54:38;;;;;;;56.95;7.13;;;6.10;99.90;;;;;;5082669;28;20653;-48
2024/01/25 04:57:06;;;;;;;67.85;8.38;;;6.10;99.90;;;;;;5083157;28;20188;-40
2024/01/25 04:59:33;;;;;;;54.65;7.53;;;6.10;99.90;;;;;;5068312;28;20733;-36
2024/01/25 05:01:59;;;;;;;50.85;7.55;;;6.10;99.90;;;;;;5083008;28;20178;-39
2024/01/25 05:04:26;;;;;;;47.40;8.00;;;6.10;99.90;;;;;;5083279;28;20548;-44
2024/01/25 05:06:52;;;;;;;48.33;7.85;;;6.10;99.90;;;;;;5082580;28;20193;-40
2024/01/25 05:09:17;;;;;;;61.97;8.82;;;6.10;99.90;;;;;;5081132;28;20214;-45
2024/01/25 05:11:43;;;;;;;68.03;8.65;;;6.10;99.90;;;;;;5082129;28;20235;-37
2024/01/25 05:14:09;;;;;;;55.92;7.57;;;6.10;99.90;;;;;;5082313;28;20216;-40
2024/01/25 05:16:35;;;;;;;58.53;8.00;;;6.10;99.90;;;;;;5082561;28;20193;-40
2024/01/25 05:19:01;;;;;;;64.00;8.63;;;6.10;99.90;;;;;;5082718;28;20273;-41
2024/01/25 05:21:27;;;;;;;58.15;8.07;;;6.10;99.90;;;;;;5079939;28;20307;-39
2024/01/25 05:23:53;;;;;;;53.40;7.65;;;6.10;99.90;;;;;;5081257;28;20204;-40
2024/01/25 05:26:19;;;;;;;57.47;7.60;;;6.10;99.90;;;;;;5082356;28;20182;-38
2024/01/25 05:28:45;;;;;;;54.63;7.28;;;6.10;99.90;;;;;;5082472;28;20224;-42
2024/01/25 05:31:14;;;;;;;56.05;7.75;;;6.10;99.90;;;;;;5082402;28;20190;-40
2024/01/25 05:33:40;;;;;;;60.08;8.73;;;6.10;99.90;;;;;;5082099;28;20231;-41
2024/01/25 05:36:07;;;;;;;61.63;7.25;;;6.10;99.90;;;;;;5081703;28;20258;-38
2024/01/25 05:38:33;;;;;;;64.20;7.53;;;6.10;99.90;;;;;;5081404;28;20222;-39
2024/01/25 05:40:59;;;;;;;63.33;7.85;;;6.10;99.90;;;;;;5080186;28;20541;-40
2024/01/25 05:43:25;;;;;;;51.67;7.30;;;6.00;99.90;;;;;;5081769;28;20212;-40
2024/01/25 05:45:51;;;;;;;69.13;8.02;;;6.00;99.90;;;;;;5080838;28;20609;-42
2024/01/25 05:48:17;;;;;;;51.10;7.63;;;6.00;99.90;;;;;;5081890;28;20297;-38
2024/01/25 05:50:43;;;;;;;51.47;7.45;;;6.00;99.90;;;;;;5081489;28;20547;-39
2024/01/25 05:53:09;;;;;;;56.30;8.15;;;6.00;99.90;;;;;;5080057;28;20232;-40
2024/01/25 05:55:35;;;;;;;59.17;7.90;;;6.00;99.90;;;;;;5081624;28;20660;-40
2024/01/25 05:58:01;;;;;;;50.70;7.15;;;6.00;99.90;;;;;;5081947;28;20186;-41
2024/01/25 06:00:28;;;;;;;57.15;8.00;;;6.00;99.90;;;;;;5080990;28;20185;-40
2024/01/25 06:02:54;;;;;;;68.00;8.50;;;6.00;99.90;;;;;;5082015;28;20300;-39
2024/01/25 06:05:20;;;;;;;57.60;7.88;;;6.00;99.90;;;;;;5081836;28;21113;-45
2024/01/25 06:07:46;;;;;;;59.47;7.53;;;6.00;99.90;;;;;;5079147;28;20263;-37
2024/01/25 06:10:12;;;;;;;60.22;7.28;;;6.00;99.90;;;;;;5080608;28;20700;-38
2024/01/25 06:12:38;;;;;;;58.70;7.43;;;6.00;99.90;;;;;;5062499;28;20191;-37
2024/01/25 06:15:05;;;;;;;60.05;8.05;;;6.00;99.90;;;;;;5080695;28;20247;-40
2024/01/25 06:17:31;;;;;;;59.47;8.32;;;5.90;99.90;;;;;;5079610;28;20193;-47
2024/01/25 06:19:57;;;;;;;67.40;9.23;;;5.90;99.90;;;;;;5079830;28;20206;-40
2024/01/25 06:22:23;;;;;;;67.15;8.82;;;5.90;99.90;;;;;;5079540;28;20194;-40
2024/01/25 06:24:49;;;;;;;50.60;8.60;;;6.00;99.90;;;;;;5081105;28;20208;-40
2024/01/25 06:27:15;;;;;;;59.90;9.57;;;6.00;99.90;;;;;;5081032;28;20182;-43
2024/01/25 06:29:40;;;;;;;71.28;10.13;;;6.00;99.90;;;;;;5078349;28;20255;-38
2024/01/25 06:32:06;;;;;;;69.03;9.38;;;6.00;99.90;;;;;;5079835;28;20193;-42
2024/01/25 06:34:32;;;;;;;46.20;7.25;;;6.00;99.90;;;;;;5080828;28;20301;-38
2024/01/25 06:36:58;;;;;;;54.63;7.45;;;6.00;99.90;;;;;;5080234;28;20760;-45
2024/01/25 06:39:24;;;;;;;56.00;7.57;;;5.90;99.90;;;;;;5079639;28;20190;-39
2024/01/25 06:41:50;;;;;;;51.72;7.38;;;5.90;99.90;;;;;;5080606;28;20222;-41
2024/01/25 06:44:17;;;;;;;66.97;7.55;;;5.90;99.90;;;;;;5079029;28;20668;-41
2024/01/25 06:46:43;;;;;;;47.35;7.40;;;5.90;99.90;;;;;;5080715;28;21010;-37
2024/01/25 06:49:08;;;;;;;67.82;8.75;;;5.80;99.90;;;;;;5079417;28;20213;-42
2024/01/25 06:51:34;;;;;;;69.70;8.32;;;5.90;99.90;;;;;;5081296;28;20286;-43
2024/01/25 06:54:00;;;;;;;62.28;8.05;;;5.80;99.90;;;;;;5080888;28;20197;-40
2024/01/25 06:56:26;;;;;;;50.17;7.95;;;5.80;99.90;;;;;;5079539;28;20269;-40
2024/01/25 06:58:52;;;;;;;60.58;7.82;;;5.80;99.90;;;;;;5062419;28;20216;-41
2024/01/25 07:01:22;;;;;;;66.75;8.15;;;5.80;99.90;;;;;;5080594;28;20658;-46
2024/01/25 07:03:50;;;;;;;64.75;8.45;;;5.70;99.90;;;;;;5080888;28;20299;-48
2024/01/25 07:06:18;;;;;;;52.75;8.65;;;5.70;99.90;;;;;;5080926;28;20227;-41
2024/01/25 07:08:44;;;;;;;61.38;8.48;;;5.70;99.90;;;;;;5079397;28;20213;-46
2024/01/25 07:11:10;;;;;;;65.90;9.43;;;5.70;99.90;;;;;;5079558;28;20534;-44
2024/01/25 07:13:36;;;;;;;57.72;8.43;;;5.70;99.90;;;;;;5062788;28;20197;-42
2024/01/25 07:16:02;;;;;;;65.53;8.32;;;5.70;99.90;;;;;;5079376;28;20747;-38
2024/01/25 07:18:28;;;;;;;62.25;8.27;;;5.70;99.90;;;;;;5078436;28;20186;-42
2024/01/25 07:20:54;;;;;;;64.88;8.77;;;5.70;99.90;;;;;;5079401;28;20193;-41
2024/01/25 07:23:21;;;;;;;64.70;8.88;;;5.70;99.90;;;;;;5062499;28;20186;-37
2024/01/25 07:25:47;;;;;;;69.25;9.02;;;5.60;99.90;;;;;;5062208;28;20658;-41
2024/01/25 07:28:13;;;;;;;56.40;9.45;;;5.70;99.90;;;;;;5079696;28;20214;-39
2024/01/25 07:30:39;;;;;;;60.28;9.10;;;5.60;99.90;;;;;;5079173;28;20190;-41
2024/01/25 07:33:05;;;;;;;67.85;9.23;;;5.70;99.90;;;;;;5079904;28;20241;-40
2024/01/25 07:35:32;;;;;;;63.40;9.50;;;5.60;99.90;;;;;;5080806;28;20534;-43
2024/01/25 07:37:58;;;;;;;53.35;9.40;;;5.60;99.90;;;;;;5080324;28;20226;-42
2024/01/25 07:40:24;;;;;;;60.15;8.73;;;5.60;99.90;;;;;;5062578;28;20198;-40
2024/01/25 07:42:49;;;;;;;67.93;9.98;;;5.60;99.90;;;;;;5062978;28;20280;-40
2024/01/25 07:45:15;;;;;;;57.90;9.30;;;5.60;99.90;;;;;;5082816;28;20642;-43
2024/01/25 07:47:42;;;;;;;65.13;9.60;;;5.60;99.90;;;;;;5082348;28;20260;-39
2024/01/25 07:50:08;;;;;;;63.88;9.35;;;5.60;99.90;;;;;;5049809;28;20237;-41
2024/01/25 07:52:34;;;;;;;67.53;8.27;;;5.60;99.90;;;;;;5063267;28;20217;-42
2024/01/25 07:55:00;;;;;;;55.10;8.75;;;5.60;99.90;;;;;;5065241;28;20182;-40
2024/01/25 07:57:26;;;;;;;64.30;9.13;;;5.60;99.90;;;;;;5065397;28;20630;-40
2024/01/25 07:59:52;;;;;;;51.97;7.30;;;5.70;99.90;;;;;;5083316;28;20181;-39
2024/01/25 08:02:19;;;;;;;63.53;9.00;;;5.70;99.90;;;;;;5082505;28;20677;-39
2024/01/25 08:04:45;;;;;;;53.25;7.90;;;5.70;99.90;;;;;;5083617;28;20189;-44
2024/01/25 08:07:11;;;;;;;62.05;8.02;;;5.70;99.90;;;;;;5083595;28;20182;-43
2024/01/25 08:09:37;;;;;;;56.08;8.40;;;5.70;99.90;;;;;;5064568;28;20221;-41
2024/01/25 08:12:03;;;;;;;56.50;8.70;;;5.60;99.90;;;;;;5083921;28;20653;-40
2024/01/25 08:14:29;;;;;;;58.58;8.50;;;5.70;99.90;;;;;;5083247;28;20286;-41
2024/01/25 08:16:55;;;;;;;58.40;8.60;;;5.70;99.90;;;;;;5082799;28;20239;-39
2024/01/25 08:19:21;;;;;;;63.75;9.02;;;5.70;99.90;;;;;;5081551;28;20189;-43
2024/01/25 08:21:47;;;;;;;58.50;9.05;;;5.70;99.90;;;;;;5065186;28;20297;-42
2024/01/25 08:24:13;;;;;;;50.75;7.78;;;5.70;99.90;;;;;;5082030;28;20262;-42
2024/01/25 08:26:39;;;;;;;50.47;8.43;;;5.70;99.90;;;;;;5083254;28;20656;-42
2024/01/25 08:29:05;;;;;;;48.90;7.72;;;5.70;99.90;;;;;;5083005;28;20316;-39
2024/01/25 08:31:31;;;;;;;65.30;8.57;;;5.80;99.90;;;;;;5083237;28;20676;-40
2024/01/25 08:33:57;;;;;;;47.58;7.57;;;5.80;99.90;;;;;;5082426;28;20366;-41
2024/01/25 08:36:24;;;;;;;59.72;8.43;;;5.80;99.90;;;;;;5083142;28;20651;-40
2024/01/25 08:38:50;;;;;;;58.40;8.93;;;5.90;99.90;;;;;;5083479;28;20190;-40
2024/01/25 08:41:16;;;;;;;55.10;9.65;;;5.90;99.90;;;;;;5083797;28;20198;-40
2024/01/25 08:43:42;;;;;;;67.10;9.70;;;6.00;99.90;;;;;;5083501;28;20194;-40
2024/01/25 08:46:08;;;;;;;61.92;8.90;;;6.00;99.90;;;;;;5082534;28;20192;-41
2024/01/25 08:48:34;;;;;;;67.82;9.27;;;6.00;99.90;;;;;;5082102;28;20710;-43
2024/01/25 08:51:00;;;;;;;52.67;8.95;;;6.10;99.90;;;;;;5082101;28;20210;-38
2024/01/25 08:53:28;;;;;;;61.38;9.55;;;6.10;99.90;;;;;;5083511;28;20263;-42
2024/01/25 08:55:54;;;;;;;54.22;9.05;;;6.20;99.90;;;;;;5082788;28;20676;-40
2024/01/25 08:58:21;;;;;;;49.97;8.82;;;6.30;99.90;;;;;;5082878;28;20647;-41
2024/01/25 09:00:47;;;;;;;57.45;9.52;;;6.30;99.90;;;;;;5083097;28;20775;-39
2024/01/25 09:03:13;;;;;;;65.82;9.70;;;6.40;99.90;;;;;;5082427;28;20182;-47
2024/01/25 09:05:44;;;;;;;57.67;9.20;;;6.40;99.90;;;;;;5083156;28;20190;-44
2024/01/25 09:08:14;;;;;;;58.85;9.40;;;6.50;99.90;;;;;;5082156;28;20224;-39
2024/01/25 09:10:41;;;;;;;54.35;8.88;;;6.50;99.90;;;;;;5082217;28;20185;-44
2024/01/25 09:13:07;;;;;;;66.65;9.63;;;6.50;99.90;;;;;;5081900;28;20224;-44
2024/01/25 09:15:33;;;;;;;65.60;9.63;;;6.50;99.90;;;;;;5082100;28;20174;-40
2024/01/25 09:17:59;;;;;;;49.95;8.35;;;6.60;99.90;;;;;;5082116;28;20198;-39
2024/01/25 09:20:25;;;;;;;70.70;10.10;;;6.60;99.90;;;;;;5079708;28;20575;-43
2024/01/25 09:22:55;;;;;;;59.90;9.77;;;6.70;99.90;;;;;;5082873;28;20284;-43
2024/01/25 09:25:21;;;;;;;64.03;9.73;;;6.60;99.90;;;;;;5081518;28;20200;-45
2024/01/25 09:27:47;;;;;;;57.53;9.82;;;6.70;99.90;;;;;;5082101;28;20685;-43
2024/01/25 09:30:14;;;;;;;57.15;9.98;;;6.80;99.90;;;;;;5082654;28;20259;-41
2024/01/25 09:32:40;;;;;;;63.97;9.40;;;6.80;99.90;;;;;;5082575;28;20194;-43
2024/01/25 09:35:06;;;;;;;61.22;10.68;;;6.90;99.90;;;;;;5082364;28;20206;-41
2024/01/25 09:37:32;;;;;;;51.58;9.32;;;6.90;99.90;;;;;;5080094;28;20210;-36
2024/01/25 09:39:58;;;;;;;47.92;8.70;;;6.90;99.90;;;;;;5080081;28;20197;-38
2024/01/25 09:42:24;;;;;;;52.25;9.40;;;7.00;99.90;;;;;;5082204;28;20598;-41
2024/01/25 09:44:53;;;;;;;61.28;9.10;;;7.10;99.90;;;;;;5081801;28;20198;-41
2024/01/25 09:47:21;;;;;;;56.20;8.85;;;7.10;99.90;;;;;;5081553;28;20212;-52
2024/01/25 09:49:47;;;;;;;53.42;9.68;;;7.20;99.90;;;;;;5081381;28;20616;-37
2024/01/25 09:52:13;;;;;;;54.53;9.43;;;7.20;99.90;;;;;;5082100;28;20539;-40
2024/01/25 09:54:39;;;;;;;54.97;9.40;;;7.20;99.90;;;;;;5080372;28;20182;-47
2024/01/25 09:57:18;;;;;;;60.00;8.93;;;7.30;99.90;;;;;;5081685;28;20336;-46
2024/01/25 09:59:45;;;;;;;48.70;9.13;;;7.30;99.90;;;;;;5079926;28;20193;-38
2024/01/25 10:02:11;;;;;;;64.78;9.45;;;7.30;99.90;;;;;;5081293;28;20672;-42
2024/01/25 10:04:37;;;;;;;59.45;9.32;;;7.30;99.90;;;;;;5082372;28;20185;-46
2024/01/25 10:07:03;;;;;;;55.15;9.55;;;7.30;99.90;;;;;;5081656;28;20601;-38
2024/01/25 10:09:39;;;;;;;51.58;9.52;;;7.40;99.90;;;;;;5081746;28;21280;-43
2024/01/25 10:12:06;;;;;;;60.90;9.48;;;7.40;99.90;;;;;;5079517;28;20284;-43
2024/01/25 10:14:31;;;;;;;55.20;9.82;;;7.40;99.90;;;;;;5081736;28;20213;-47
2024/01/25 10:16:58;;;;;;;52.92;9.23;;;7.40;99.90;;;;;;5081255;28;20189;-44
2024/01/25 10:19:25;;;;;;;47.90;9.68;;;7.50;99.90;;;;;;5080492;28;20194;-43
2024/01/25 10:21:51;;;;;;;52.47;9.63;;;7.50;99.90;;;;;;5080936;28;20190;-42
2024/01/25 10:24:17;;;;;;;52.40;9.57;;;7.50;99.90;;;;;;5079796;28;20181;-47
2024/01/25 10:26:43;;;;;;;54.35;9.23;;;7.50;99.90;;;;;;5081212;28;20304;-39
2024/01/25 10:29:10;;;;;;;51.20;9.48;;;7.60;99.90;;;;;;5081387;28;20221;-43
2024/01/25 10:31:42;;;;;;;50.30;8.70;;;7.50;99.90;;;;;;5081372;28;20235;-44
2024/01/25 10:34:13;;;;;;;49.65;8.60;;;7.60;99.90;;;;;;5081205;28;20186;-40
2024/01/25 10:36:40;;;;;;;57.92;9.50;;;7.60;99.90;;;;;;5081324;28;20278;-45
2024/01/25 10:39:08;;;;;;;46.15;9.10;;;7.60;99.90;;;;;;5081382;28;20196;-40
2024/01/25 10:41:34;;;;;;;51.65;9.25;;;7.60;99.90;;;;;;5079901;28;20186;-43
2024/01/25 10:44:01;;;;;;;55.13;8.13;;;7.60;99.90;;;;;;5081364;28;20266;-46
2024/01/25 10:46:29;;;;;;;58.03;9.63;;;7.60;99.90;;;;;;5081221;28;20669;-42
2024/01/25 10:49:01;;;;;;;47.55;9.90;;;7.60;99.90;;;;;;5081163;28;20209;-40
2024/01/25 10:51:29;;;;;;;60.63;9.25;;;7.60;99.90;;;;;;5081190;28;20630;-43
2024/01/25 10:53:55;;;;;;;57.08;8.90;;;7.70;99.90;;;;;;5080648;28;20243;-39
2024/01/25 10:56:22;;;;;;;54.45;9.10;;;7.70;99.90;;;;;;5080802;28;20186;-41
2024/01/25 10:58:48;;;;;;;52.03;9.88;;;7.70;99.90;;;;;;5080784;28;20201;-45
2024/01/25 11:01:17;;;;;;;56.65;9.20;;;7.80;99.90;;;;;;5081219;28;20502;-41
2024/01/25 11:03:46;;;;;;;56.67;10.07;;;7.80;99.90;;;;;;5080993;28;20281;-39
2024/01/25 11:06:13;;;;;;;55.97;9.30;;;7.90;99.90;;;;;;5079543;28;20186;-38
2024/01/25 11:08:39;;;;;;;57.22;9.57;;;8.00;99.90;;;;;;5080792;28;20320;-42
2024/01/25 11:11:09;;;;;;;57.28;9.40;;;8.00;99.90;;;;;;5080839;28;20261;-42
2024/01/25 11:13:35;;;;;;;48.22;9.30;;;8.10;99.90;;;;;;5062283;28;20190;-44
2024/01/25 11:16:17;;;;;;;50.45;10.82;;;8.20;99.90;;;;;;5080866;28;20182;-38
2024/01/25 11:18:59;;;;;;;47.88;9.10;;;8.20;99.90;;;;;;5081931;28;20234;-44
2024/01/25 11:21:45;;;;;;;46.65;8.77;;;8.20;99.90;;;;;;5084539;28;20194;-39
2024/01/25 11:24:19;;;;;;;52.67;9.35;;;8.30;99.90;;;;;;5085023;28;20242;-42
2024/01/25 11:26:46;;;;;;;47.15;10.38;;;8.40;99.90;;;;;;5083191;28;20200;-41
2024/01/25 11:29:22;;;;;;;35.97;7.90;;;8.40;99.90;;;;;;5066153;28;20206;-44
2024/01/25 11:31:50;;;;;;;45.90;9.68;;;8.40;99.90;;;;;;5082852;28;20668;-49
2024/01/25 11:34:17;;;;;;;49.38;9.43;;;8.50;99.90;;;;;;5083565;28;20189;-45
2024/01/25 11:36:44;;;;;;;50.50;8.85;;;8.50;99.90;;;;;;5083985;28;20232;-40
2024/01/25 11:39:11;;;;;;;47.70;8.55;;;8.50;99.90;;;;;;5084004;28;20261;-45
2024/01/25 11:41:37;;;;;;;54.85;9.57;;;8.50;99.90;;;;;;5084138;28;20190;-43
2024/01/25 11:44:03;;;;;;;54.55;9.73;;;8.60;99.90;;;;;;5083207;28;20193;-41
2024/01/25 11:46:30;;;;;;;51.40;9.10;;;8.60;99.90;;;;;;5082690;28;20271;-41
2024/01/25 11:48:57;;;;;;;47.35;8.70;;;8.60;99.90;;;;;;5084531;28;20228;-39
2024/01/25 11:51:24;;;;;;;45.53;8.60;;;8.60;99.90;;;;;;5082509;28;20182;-43
2024/01/25 11:53:50;;;;;;;50.45;9.23;;;8.60;99.90;;;;;;5083463;28;20285;-43
2024/01/25 11:56:29;;;;;;;52.33;9.23;;;8.60;99.90;;;;;;5083475;28;20358;-41
2024/01/25 11:58:56;;;;;;;37.45;7.40;;;8.60;99.90;;;;;;5083255;28;20209;-42
2024/01/25 12:01:24;;;;;;;46.38;8.77;;;8.70;99.90;;;;;;5083973;28;20561;-42
2024/01/25 12:03:50;;;;;;;50.47;8.63;;;8.70;99.90;;;;;;5083433;28;20201;-40
2024/01/25 12:06:18;;;;;;;53.28;10.63;;;8.70;99.90;;;;;;5084077;28;20201;-39
2024/01/25 12:08:44;;;;;;;44.00;8.38;;;8.80;99.90;;;;;;5083176;28;20202;-42
2024/01/25 12:11:11;;;;;;;44.42;9.07;;;8.80;99.90;;;;;;5082522;28;20209;-40
2024/01/25 12:13:42;;;;;;;45.72;8.32;;;8.90;99.90;;;;;;5083472;28;20638;-40
2024/01/25 12:16:12;;;;;;;46.28;8.80;;;9.00;99.90;;;;;;5083533;28;20181;-38
2024/01/25 12:18:41;;;;;;;49.45;8.40;;;9.10;99.90;;;;;;5083534;28;20737;-43
2024/01/25 12:21:07;;;;;;;47.67;7.93;;;9.20;99.90;;;;;;5083072;28;21231;-43
2024/01/25 12:23:35;;;;;;;45.45;7.57;;;9.30;99.90;;;;;;5082768;28;20289;-42
2024/01/25 12:26:09;;;;;;;34.03;7.80;;;9.40;99.90;;;;;;5082565;28;20193;-40
2024/01/25 12:28:35;;;;;;;50.33;8.80;;;9.40;99.90;;;;;;5083062;28;20575;-43
2024/01/25 12:31:05;;;;;;;45.03;7.70;;;9.50;99.90;;;;;;5082134;28;20200;-40
2024/01/25 12:33:33;;;;;;;45.10;7.88;;;9.60;99.90;;;;;;5083429;28;20209;-42
2024/01/25 12:36:00;;;;;;;43.63;8.32;;;9.60;99.90;;;;;;5082576;28;20186;-40
2024/01/25 12:38:26;;;;;;;45.72;7.95;;;9.60;99.90;;;;;;5082409;28;20201;-42
2024/01/25 12:40:52;;;;;;;50.78;8.90;;;9.70;99.90;;;;;;5081465;28;20558;-44
2024/01/25 12:43:21;;;;;;;40.25;8.25;;;9.80;99.90;;;;;;5081641;28;20745;-44